createdAt,value
2023-02-23T00:02:21.417Z,98.44
2023-02-23T00:04:49.737Z,98.50
2023-02-23T00:07:20.507Z,98.77
2023-02-23T00:09:48.731Z,98.84
2023-02-23T00:12:17.220Z,98.98
2023-02-23T00:14:47.349Z,98.96
2023-02-23T00:17:17.605Z,99.13
2023-02-23T00:19:49.261Z,98.86
2023-02-23T00:22:18.482Z,98.79
2023-02-23T00:24:48.012Z,98.76
2023-02-23T00:27:21.208Z,98.46
2023-02-23T00:29:52.112Z,98.35
2023-02-23T00:32:24.018Z,98.14
2023-02-23T00:34:52.556Z,97.92
2023-02-23T00:37:22.883Z,97.91
2023-02-23T00:39:52.121Z,97.98
2023-02-23T00:42:21.101Z,98.04
2023-02-23T00:44:50.858Z,98.17
2023-02-23T00:47:19.189Z,98.40
2023-02-23T00:49:47.525Z,98.63
2023-02-23T00:52:15.984Z,98.54
2023-02-23T00:54:44.533Z,98.35
2023-02-23T00:57:12.870Z,98.21
2023-02-23T00:59:41.274Z,98.04
2023-02-23T01:02:11.966Z,97.75
2023-02-23T01:04:40.388Z,97.64
2023-02-23T01:07:08.711Z,97.64
2023-02-23T01:09:38.120Z,97.96
2023-02-23T01:12:07.429Z,98.03
2023-02-23T01:14:38.050Z,98.33
2023-02-23T01:17:07.463Z,98.43
2023-02-23T01:19:39.116Z,98.55
2023-02-23T01:22:07.534Z,98.62
2023-02-23T01:24:36.089Z,98.65
2023-02-23T01:27:06.474Z,98.47
2023-02-23T01:29:35.660Z,98.00
2023-02-23T01:32:05.060Z,97.83
2023-02-23T01:34:33.671Z,97.59
2023-02-23T01:37:04.744Z,97.58
2023-02-23T01:39:34.751Z,97.76
2023-02-23T01:42:05.350Z,97.89
2023-02-23T01:45:20.820Z,97.91
2023-02-23T01:47:49.680Z,98.19
2023-02-23T01:50:19.874Z,97.76
2023-02-23T01:52:53.464Z,97.55
2023-02-23T01:55:24.454Z,97.36
2023-02-23T01:57:59.573Z,97.22
2023-02-23T02:00:28.303Z,97.21
2023-02-23T02:02:58.195Z,97.60
2023-02-23T02:05:30.129Z,97.98
2023-02-23T02:08:00.484Z,98.13
2023-02-23T02:10:46.999Z,97.93
2023-02-23T02:13:24.750Z,97.34
2023-02-23T02:16:46.974Z,97.26
2023-02-23T02:20:28.778Z,97.33
2023-02-23T02:23:49.116Z,98.04
2023-02-23T02:26:34.418Z,98.11
2023-02-23T02:29:59.250Z,98.02
2023-02-23T02:32:49.305Z,97.70
2023-02-23T02:35:53.925Z,97.85
2023-02-23T02:38:50.574Z,97.99
2023-02-23T02:41:31.454Z,98.24
2023-02-23T02:44:09.818Z,98.40
2023-02-23T02:46:42.172Z,98.58
2023-02-23T02:49:18.272Z,98.64
2023-02-23T02:51:54.262Z,98.89
2023-02-23T02:54:31.426Z,99.37
2023-02-23T02:57:04.324Z,99.48
2023-02-23T02:59:50.934Z,99.70
2023-02-23T03:02:41.738Z,99.76
2023-02-23T03:05:33.222Z,99.46
2023-02-23T03:08:29.662Z,99.09
2023-02-23T03:11:22.198Z,98.69
2023-02-23T03:14:30.446Z,98.42
2023-02-23T03:17:26.316Z,98.37
2023-02-23T03:20:17.235Z,98.75
2023-02-23T03:23:13.569Z,99.11
2023-02-23T03:26:10.799Z,99.28
2023-02-23T03:29:09.851Z,99.79
2023-02-23T03:32:02.958Z,99.96
2023-02-23T03:34:55.984Z,100.00
2023-02-23T03:37:50.392Z,100.00
2023-02-23T03:40:40.946Z,100.00
2023-02-23T03:43:32.348Z,100.00
2023-02-23T03:46:22.379Z,100.00
2023-02-23T03:49:10.697Z,100.00
2023-02-23T03:52:00.047Z,100.00
2023-02-23T03:54:52.894Z,100.00
2023-02-23T03:57:41.354Z,100.00
2023-02-23T04:00:34.520Z,100.00
2023-02-23T04:03:23.639Z,100.00
2023-02-23T04:06:11.762Z,99.63
2023-02-23T04:08:58.492Z,99.78
2023-02-23T04:11:49.730Z,99.74
2023-02-23T04:14:21.803Z,99.64
2023-02-23T04:16:49.675Z,100.00
2023-02-23T04:19:20.086Z,100.00
2023-02-23T04:21:48.498Z,100.00
2023-02-23T04:24:16.869Z,100.00
2023-02-23T04:26:45.311Z,100.00
2023-02-23T04:29:14.352Z,100.00
2023-02-23T04:31:42.850Z,100.00
2023-02-23T04:34:11.356Z,100.00
2023-02-23T04:36:41.114Z,100.00
2023-02-23T04:39:09.441Z,100.00
2023-02-23T04:41:37.961Z,100.00
2023-02-23T04:44:06.826Z,100.00
2023-02-23T04:46:35.172Z,100.00
2023-02-23T04:49:03.801Z,100.00
2023-02-23T04:51:33.908Z,100.00
2023-02-23T04:54:04.091Z,100.00
2023-02-23T04:56:33.312Z,99.96
2023-02-23T04:59:01.580Z,99.80
2023-02-23T05:01:30.360Z,99.56
2023-02-23T05:03:58.729Z,99.49
2023-02-23T05:06:27.181Z,99.57
2023-02-23T05:08:55.502Z,99.57
2023-02-23T05:11:26.612Z,99.35
2023-02-23T05:13:55.242Z,99.70
2023-02-23T05:16:23.691Z,99.74
2023-02-23T05:18:52.413Z,99.60
2023-02-23T05:21:20.885Z,99.57
2023-02-23T05:23:49.459Z,99.90
2023-02-23T05:26:18.879Z,100.00
2023-02-23T05:28:48.777Z,100.00
2023-02-23T05:31:17.493Z,100.00
2023-02-23T05:33:46.009Z,100.00
2023-02-23T05:36:17.129Z,100.00
2023-02-23T05:38:46.965Z,100.00
2023-02-23T05:41:19.755Z,100.00
2023-02-23T05:43:52.363Z,99.87
2023-02-23T05:46:24.177Z,100.00
2023-02-23T05:48:56.182Z,99.90
2023-02-23T05:51:24.530Z,100.00
2023-02-23T05:53:52.804Z,100.00
2023-02-23T05:56:21.392Z,100.00
2023-02-23T05:58:52.685Z,100.00
2023-02-23T06:01:22.485Z,100.00
2023-02-23T06:03:51.038Z,100.00
2023-02-23T06:06:20.315Z,99.69
2023-02-23T06:08:49.398Z,99.95
2023-02-23T06:11:18.126Z,100.00
2023-02-23T06:13:46.632Z,100.00
2023-02-23T06:16:16.718Z,100.00
2023-02-23T06:18:45.290Z,100.00
2023-02-23T06:21:14.213Z,100.00
2023-02-23T06:23:42.625Z,100.00
2023-02-23T06:26:11.201Z,100.00
2023-02-23T06:28:39.504Z,100.00
2023-02-23T06:31:07.884Z,100.00
2023-02-23T06:33:37.720Z,100.00
2023-02-23T06:36:06.898Z,100.00
2023-02-23T06:38:35.357Z,100.00
2023-02-23T06:41:09.807Z,100.00
2023-02-23T06:43:38.293Z,100.00
2023-02-23T06:46:07.029Z,100.00
2023-02-23T06:48:35.576Z,100.00
2023-02-23T06:51:05.614Z,100.00
2023-02-23T06:53:34.099Z,100.00
2023-02-23T06:56:03.571Z,100.00
2023-02-23T06:58:31.984Z,100.00
2023-02-23T07:01:00.519Z,100.00
2023-02-23T07:03:28.982Z,99.71
2023-02-23T07:05:57.353Z,99.51
2023-02-23T07:08:27.107Z,99.16
2023-02-23T07:10:56.763Z,98.71
2023-02-23T07:13:25.094Z,98.80
2023-02-23T07:15:58.824Z,99.00
2023-02-23T07:18:27.265Z,100.00
2023-02-23T07:20:55.637Z,100.00
2023-02-23T07:23:24.082Z,100.00
2023-02-23T07:25:56.578Z,100.00
2023-02-23T07:28:25.810Z,99.96
2023-02-23T07:30:57.315Z,100.00
2023-02-23T07:33:26.212Z,100.00
2023-02-23T07:35:54.629Z,100.00
2023-02-23T07:38:23.026Z,99.83
2023-02-23T07:40:53.051Z,99.67
2023-02-23T07:43:22.828Z,100.00
2023-02-23T07:45:51.843Z,100.00
2023-02-23T07:48:20.737Z,100.00
2023-02-23T07:50:49.184Z,100.00
2023-02-23T07:53:17.565Z,100.00
2023-02-23T07:55:45.898Z,100.00
2023-02-23T07:58:15.650Z,100.00
2023-02-23T08:00:44.307Z,100.00
2023-02-23T08:03:12.900Z,100.00
2023-02-23T08:05:41.645Z,100.00
2023-02-23T08:08:11.018Z,100.00
2023-02-23T08:10:39.671Z,100.00
2023-02-23T08:13:08.481Z,100.00
2023-02-23T08:15:38.167Z,100.00
2023-02-23T08:18:06.659Z,100.00
2023-02-23T08:20:35.688Z,100.00
2023-02-23T08:23:04.100Z,100.00
2023-02-23T08:25:32.876Z,100.00
2023-02-23T08:28:04.776Z,100.00
2023-02-23T08:30:33.896Z,99.88
2023-02-23T08:33:05.570Z,98.75
2023-02-23T08:35:33.935Z,98.74
2023-02-23T08:38:02.250Z,98.68
2023-02-23T08:40:30.653Z,98.58
2023-02-23T08:42:58.915Z,99.02
2023-02-23T08:45:29.319Z,99.54
2023-02-23T08:47:58.362Z,98.46
2023-02-23T08:50:28.131Z,97.97
2023-02-23T08:52:56.549Z,98.81
2023-02-23T08:55:25.072Z,98.93
2023-02-23T08:57:53.400Z,98.51
2023-02-23T09:00:23.332Z,98.70
2023-02-23T09:02:51.761Z,98.07
2023-02-23T09:05:20.450Z,97.37
2023-02-23T09:07:50.866Z,96.86
2023-02-23T09:10:24.387Z,96.74
2023-02-23T09:12:52.987Z,96.56
2023-02-23T09:15:21.834Z,96.11
2023-02-23T09:17:50.544Z,96.78
2023-02-23T09:20:19.601Z,97.02
2023-02-23T09:22:49.705Z,96.50
2023-02-23T09:25:19.347Z,95.89
2023-02-23T09:27:47.855Z,96.67
2023-02-23T09:30:20.396Z,96.07
2023-02-23T09:32:49.315Z,96.08
2023-02-23T09:35:18.526Z,95.92
2023-02-23T09:37:50.582Z,95.60
2023-02-23T09:40:23.565Z,94.41
2023-02-23T09:43:04.367Z,93.50
2023-02-23T09:45:40.184Z,94.71
2023-02-23T09:48:18.299Z,94.08
2023-02-23T09:50:51.330Z,93.93
2023-02-23T09:53:38.417Z,93.86
2023-02-23T09:56:14.931Z,94.24
2023-02-23T09:58:43.840Z,94.22
2023-02-23T10:01:46.324Z,93.74
2023-02-23T10:04:22.232Z,94.77
2023-02-23T10:06:58.585Z,94.53
2023-02-23T10:09:50.136Z,95.60
2023-02-23T10:12:29.088Z,94.42
2023-02-23T10:15:12.911Z,94.50
2023-02-23T10:17:50.214Z,93.76
2023-02-23T10:20:28.637Z,93.22
2023-02-23T10:23:04.863Z,91.56
2023-02-23T10:25:41.691Z,91.28
2023-02-23T10:28:16.592Z,92.03
2023-02-23T10:30:46.746Z,91.77
2023-02-23T10:33:22.537Z,92.13
2023-02-23T10:36:07.384Z,92.05
2023-02-23T10:38:40.273Z,92.93
2023-02-23T10:41:14.650Z,92.53
2023-02-23T10:43:43.555Z,92.93
2023-02-23T10:46:22.246Z,93.15
2023-02-23T10:48:52.273Z,92.11
2023-02-23T10:51:29.537Z,93.02
2023-02-23T10:54:04.980Z,92.41
2023-02-23T10:56:45.892Z,92.63
2023-02-23T10:59:21.409Z,92.37
2023-02-23T11:02:01.387Z,93.83
2023-02-23T11:04:31.810Z,93.79
2023-02-23T11:07:10.689Z,94.30
2023-02-23T11:09:47.072Z,95.61
2023-02-23T11:12:25.539Z,96.03
2023-02-23T11:14:56.007Z,95.77
2023-02-23T11:17:32.923Z,94.89
2023-02-23T11:20:09.047Z,94.65
2023-02-23T11:22:42.144Z,94.39
2023-02-23T11:25:18.801Z,94.10
2023-02-23T11:27:51.711Z,94.31
2023-02-23T11:30:24.549Z,95.74
2023-02-23T11:32:55.874Z,95.74
2023-02-23T11:35:31.641Z,94.93
2023-02-23T11:38:00.703Z,95.84
2023-02-23T11:40:32.616Z,95.58
2023-02-23T11:43:14.254Z,96.33
2023-02-23T11:45:49.687Z,95.55
2023-02-23T11:48:30.043Z,94.66
2023-02-23T11:50:59.404Z,94.14
2023-02-23T11:53:33.762Z,93.18
2023-02-23T11:56:08.028Z,93.43
2023-02-23T11:58:42.319Z,94.49
2023-02-23T12:01:13.793Z,94.21
2023-02-23T12:03:49.301Z,94.63
2023-02-23T12:06:30.445Z,94.49
2023-02-23T12:09:06.721Z,94.77
2023-02-23T12:11:42.323Z,95.25
2023-02-23T12:14:25.640Z,95.34
2023-02-23T12:16:58.656Z,95.50
2023-02-23T12:19:30.918Z,93.84
2023-02-23T12:22:07.610Z,94.81
2023-02-23T12:24:45.768Z,95.12
2023-02-23T12:27:22.406Z,94.23
2023-02-23T12:30:09.121Z,93.48
2023-02-23T12:32:47.828Z,94.41
2023-02-23T12:35:21.358Z,93.50
2023-02-23T12:37:54.721Z,94.03
2023-02-23T12:40:29.068Z,93.11
2023-02-23T12:43:05.588Z,93.10
2023-02-23T12:45:44.450Z,93.45
2023-02-23T12:48:29.496Z,93.17
2023-02-23T12:51:02.291Z,92.26
2023-02-23T12:53:43.245Z,93.04
2023-02-23T12:56:29.589Z,92.23
2023-02-23T12:59:13.399Z,92.01
2023-02-23T13:01:47.684Z,91.80
2023-02-23T13:04:45.752Z,91.49
2023-02-23T13:07:22.331Z,91.46
2023-02-23T13:10:05.421Z,91.34
2023-02-23T13:12:49.671Z,91.73
2023-02-23T13:15:31.280Z,91.48
2023-02-23T13:18:08.366Z,91.35
2023-02-23T13:20:43.192Z,92.32
2023-02-23T13:23:22.594Z,92.47
2023-02-23T13:26:00.645Z,92.06
2023-02-23T13:28:43.261Z,91.51
2023-02-23T13:31:24.801Z,90.94
2023-02-23T13:33:57.188Z,90.75
2023-02-23T13:36:27.563Z,90.57
2023-02-23T13:39:36.683Z,90.25
2023-02-23T13:42:36.773Z,90.02
2023-02-23T13:45:42.042Z,89.47
2023-02-23T13:48:25.672Z,88.64
2023-02-23T13:51:03.448Z,88.29
2023-02-23T13:53:44.117Z,87.64
2023-02-23T13:56:17.958Z,87.33
2023-02-23T13:58:50.358Z,87.26
2023-02-23T14:01:23.666Z,86.95
2023-02-23T14:03:58.031Z,87.15
2023-02-23T14:06:31.568Z,86.72
2023-02-23T14:09:08.203Z,86.78
2023-02-23T14:11:48.089Z,87.04
2023-02-23T14:14:42.151Z,86.26
2023-02-23T14:17:50.527Z,86.69
2023-02-23T14:20:50.790Z,86.29
2023-02-23T14:23:34.810Z,86.70
2023-02-23T14:26:37.191Z,86.68
2023-02-23T14:29:41.624Z,86.34
2023-02-23T14:32:40.469Z,86.76
2023-02-23T14:35:48.525Z,86.95
2023-02-23T14:38:47.045Z,86.96
2023-02-23T14:41:16.448Z,87.19
2023-02-23T14:43:46.513Z,86.54
2023-02-23T14:46:21.622Z,86.57
2023-02-23T14:49:10.180Z,86.82
2023-02-23T14:51:44.856Z,87.12
2023-02-23T14:54:25.168Z,87.18
2023-02-23T14:56:58.325Z,87.33
2023-02-23T14:59:31.220Z,87.67
2023-02-23T15:02:01.952Z,87.70
2023-02-23T15:04:31.501Z,87.74
2023-02-23T15:07:03.154Z,87.65
2023-02-23T15:09:39.328Z,87.72
2023-02-23T15:12:18.409Z,87.60
2023-02-23T15:14:49.945Z,87.49
2023-02-23T15:17:22.052Z,88.13
2023-02-23T15:22:47.416Z,88.62
2023-02-23T15:25:20.345Z,88.54
2023-02-23T15:27:51.815Z,88.05
2023-02-23T15:30:24.895Z,88.20
2023-02-23T15:33:02.718Z,88.86
2023-02-23T15:35:32.725Z,89.34
2023-02-23T15:38:14.054Z,89.60
2023-02-23T15:40:55.854Z,89.65
2023-02-23T15:43:24.895Z,89.58
2023-02-23T15:45:55.824Z,89.48
2023-02-23T15:48:28.774Z,89.49
2023-02-23T15:50:58.843Z,89.59
2023-02-23T15:53:32.067Z,89.41
2023-02-23T15:56:14.360Z,89.69
2023-02-23T15:58:56.581Z,89.77
2023-02-23T16:01:27.736Z,89.99
2023-02-23T16:04:03.572Z,90.08
2023-02-23T16:06:38.141Z,90.38
2023-02-23T16:09:21.950Z,90.18
2023-02-23T16:11:55.817Z,90.17
2023-02-23T16:14:25.715Z,90.30
2023-02-23T16:17:10.941Z,90.16
2023-02-23T16:19:41.817Z,89.72
2023-02-23T16:22:22.472Z,89.86
2023-02-23T16:25:03.619Z,89.25
2023-02-23T16:27:33.665Z,89.37
2023-02-23T16:30:18.631Z,89.40
2023-02-23T16:32:47.440Z,89.07
2023-02-23T16:35:20.723Z,89.10
2023-02-23T16:37:59.722Z,89.39
2023-02-23T16:40:28.445Z,89.21
2023-02-23T16:42:59.594Z,89.22
2023-02-23T16:45:29.787Z,88.92
2023-02-23T16:48:02.342Z,88.84
2023-02-23T16:50:33.508Z,88.53
2023-02-23T16:53:03.533Z,88.19
2023-02-23T16:55:39.176Z,87.72
2023-02-23T16:58:15.710Z,88.05
2023-02-23T17:00:44.950Z,88.25
2023-02-23T17:03:20.344Z,88.52
2023-02-23T17:05:49.431Z,89.70
2023-02-23T17:08:18.154Z,89.73
2023-02-23T17:10:50.287Z,89.56
2023-02-23T17:13:22.334Z,90.70
2023-02-23T17:15:56.116Z,91.00
2023-02-23T17:18:27.510Z,90.55
2023-02-23T17:20:58.021Z,90.01
2023-02-23T17:23:30.038Z,90.04
2023-02-23T17:25:58.534Z,88.84
2023-02-23T17:28:28.292Z,88.05
2023-02-23T17:30:56.740Z,87.93
2023-02-23T17:33:27.218Z,87.49
2023-02-23T17:35:55.845Z,86.55
2023-02-23T17:38:29.477Z,85.84
2023-02-23T17:40:58.010Z,85.06
2023-02-23T17:43:27.761Z,85.25
2023-02-23T17:45:56.930Z,83.81
2023-02-23T17:48:26.932Z,84.26
2023-02-23T17:51:00.950Z,83.49
2023-02-23T17:53:29.797Z,82.46
2023-02-23T17:55:59.150Z,81.50
2023-02-23T17:58:29.760Z,80.53
2023-02-23T18:01:01.259Z,79.84
2023-02-23T18:03:33.129Z,78.82
2023-02-23T18:06:02.042Z,78.53
2023-02-23T18:08:30.529Z,77.40
2023-02-23T18:11:00.232Z,76.42
2023-02-23T18:13:33.267Z,76.40
2023-02-23T18:16:05.997Z,75.67
2023-02-23T18:18:34.534Z,75.33
2023-02-23T18:21:03.065Z,74.73
2023-02-23T18:23:32.814Z,74.28
2023-02-23T18:26:09.098Z,74.30
2023-02-23T18:28:41.048Z,74.35
2023-02-23T18:31:09.381Z,73.27
2023-02-23T18:33:37.872Z,72.99
2023-02-23T18:36:17.960Z,72.46
2023-02-23T18:38:46.419Z,72.22
2023-02-23T18:41:15.088Z,72.74
2023-02-23T18:43:45.123Z,72.37
2023-02-23T18:46:15.128Z,72.43
2023-02-23T18:48:44.479Z,72.07
2023-02-23T18:51:14.634Z,72.06
2023-02-23T18:53:44.654Z,71.60
2023-02-23T18:56:15.300Z,70.91
2023-02-23T18:58:45.790Z,70.66
2023-02-23T19:01:18.043Z,70.93
2023-02-23T19:03:47.219Z,70.91
2023-02-23T19:06:16.153Z,70.59
2023-02-23T19:08:45.786Z,70.43
2023-02-23T19:11:14.213Z,70.63
2023-02-23T19:13:43.877Z,70.41
2023-02-23T19:16:12.257Z,69.67
2023-02-23T19:18:40.559Z,70.03
2023-02-23T19:21:09.342Z,70.10
2023-02-23T19:23:38.682Z,70.18
2023-02-23T19:26:07.763Z,70.63
2023-02-23T19:28:36.447Z,69.79
2023-02-23T19:31:09.294Z,69.49
2023-02-23T19:33:39.295Z,69.55
2023-02-23T19:36:09.617Z,69.20
2023-02-23T19:38:39.239Z,69.31
2023-02-23T19:41:08.182Z,68.99
2023-02-23T19:43:36.783Z,68.61
2023-02-23T19:46:08.409Z,69.17
2023-02-23T19:48:37.240Z,68.96
2023-02-23T19:51:06.443Z,69.22
2023-02-23T19:53:35.628Z,68.24
2023-02-23T19:56:07.859Z,68.64
2023-02-23T19:58:37.194Z,69.10
2023-02-23T20:01:09.645Z,68.91
2023-02-23T20:03:43.233Z,68.31
2023-02-23T20:06:14.015Z,68.24
2023-02-23T20:08:44.627Z,68.79
2023-02-23T20:11:15.481Z,68.69
2023-02-23T20:13:43.930Z,68.24
2023-02-23T20:16:15.674Z,68.24
2023-02-23T20:18:44.860Z,68.50
2023-02-23T20:21:16.194Z,68.53
2023-02-23T20:23:47.742Z,68.72
2023-02-23T20:26:20.492Z,68.55
2023-02-23T20:28:49.951Z,68.32
2023-02-23T20:31:25.657Z,68.60
2023-02-23T20:33:54.842Z,68.29
2023-02-23T20:36:24.502Z,68.74
2023-02-23T20:38:53.616Z,69.02
2023-02-23T20:41:22.781Z,69.13
2023-02-23T20:43:51.962Z,69.20
2023-02-23T20:46:21.890Z,68.86
2023-02-23T20:48:50.242Z,68.40
2023-02-23T20:51:20.069Z,68.10
2023-02-23T20:53:49.888Z,68.60
2023-02-23T20:56:23.545Z,68.59
2023-02-23T20:58:54.568Z,68.96
2023-02-23T21:01:27.143Z,69.17
2023-02-23T21:03:59.595Z,69.61
2023-02-23T21:06:30.262Z,69.58
2023-02-23T21:09:04.209Z,69.72
2023-02-23T21:11:33.925Z,69.83
2023-02-23T21:14:02.259Z,69.49
2023-02-23T21:16:32.304Z,69.36
2023-02-23T21:19:05.258Z,68.94
2023-02-23T21:21:39.416Z,69.22
2023-02-23T21:24:08.743Z,69.46
2023-02-23T21:26:37.401Z,69.30
2023-02-23T21:29:11.663Z,69.34
2023-02-23T21:31:42.423Z,69.61
2023-02-23T21:34:11.471Z,69.53
2023-02-23T21:36:40.451Z,69.08
2023-02-23T21:39:09.518Z,69.75
2023-02-23T21:41:38.210Z,69.60
2023-02-23T21:44:09.079Z,69.26
2023-02-23T21:46:37.623Z,69.15
2023-02-23T21:49:10.096Z,69.24
2023-02-23T21:51:38.944Z,69.39
2023-02-23T21:54:07.424Z,69.78
2023-02-23T21:56:36.928Z,70.10
2023-02-23T21:59:08.155Z,70.33
2023-02-23T22:01:39.590Z,70.40
2023-02-23T22:04:12.540Z,70.59
2023-02-23T22:06:44.082Z,70.76
2023-02-23T22:09:15.650Z,70.46
2023-02-23T22:11:47.579Z,70.26
2023-02-23T22:14:18.055Z,70.08
2023-02-23T22:16:47.764Z,70.13
2023-02-23T22:19:19.348Z,69.57
2023-02-23T22:21:48.915Z,70.12
2023-02-23T22:24:18.163Z,70.59
2023-02-23T22:26:53.833Z,70.85
2023-02-23T22:29:24.095Z,70.99
2023-02-23T22:31:52.824Z,71.70
2023-02-23T22:34:22.788Z,71.66
2023-02-23T22:36:51.235Z,71.14
2023-02-23T22:39:20.240Z,71.35
2023-02-23T22:41:49.560Z,71.25
2023-02-23T22:44:21.524Z,71.12
2023-02-23T22:46:50.267Z,71.33
2023-02-23T22:49:19.857Z,70.87
2023-02-23T22:51:50.498Z,70.47
2023-02-23T22:54:20.503Z,70.51
2023-02-23T22:56:48.974Z,70.88
2023-02-23T22:59:20.272Z,71.58
2023-02-23T23:01:50.256Z,73.03
2023-02-23T23:04:21.891Z,74.07
2023-02-23T23:06:52.672Z,74.24
2023-02-23T23:09:21.838Z,74.26
2023-02-23T23:11:51.145Z,74.67
2023-02-23T23:14:20.383Z,75.14
2023-02-23T23:16:49.874Z,75.29
2023-02-23T23:19:24.058Z,75.88
2023-02-23T23:21:56.091Z,75.17
2023-02-23T23:24:25.689Z,75.29
2023-02-23T23:26:56.348Z,75.39
2023-02-23T23:29:25.679Z,75.03
2023-02-23T23:31:57.129Z,75.05
2023-02-23T23:34:26.110Z,74.78
2023-02-23T23:36:56.813Z,74.48
2023-02-23T23:39:26.925Z,73.59
2023-02-23T23:41:55.707Z,73.96
2023-02-23T23:44:29.157Z,74.62
2023-02-23T23:46:58.029Z,75.50
2023-02-23T23:49:26.758Z,75.65
2023-02-23T23:51:57.897Z,75.51
2023-02-23T23:54:30.731Z,75.50
2023-02-23T23:57:01.424Z,77.23
2023-02-23T23:59:31.791Z,77.69
